sensor_id;sensor_type;location;lat;lon;timestamp;P1;durP1;ratioP1;P2;durP2;ratioP2
42988;SDS011;28622;43.716;20.668;2022-09-13T00:00:48;1.02;;;0.57;;
42988;SDS011;28622;43.716;20.668;2022-09-13T00:03:15;2.00;;;0.82;;
42988;SDS011;28622;43.716;20.668;2022-09-13T00:05:42;1.15;;;0.60;;
42988;SDS011;28622;43.716;20.668;2022-09-13T00:08:08;1.13;;;0.68;;
42988;SDS011;28622;43.716;20.668;2022-09-13T00:10:35;0.98;;;0.60;;
42988;SDS011;28622;43.716;20.668;2022-09-13T00:13:03;1.65;;;0.68;;
42988;SDS011;28622;43.716;20.668;2022-09-13T00:15:30;0.43;;;0.43;;
42988;SDS011;28622;43.716;20.668;2022-09-13T00:17:56;2.20;;;0.82;;
42988;SDS011;28622;43.716;20.668;2022-09-13T00:20:22;1.17;;;0.90;;
42988;SDS011;28622;43.716;20.668;2022-09-13T00:22:48;0.88;;;0.50;;
42988;SDS011;28622;43.716;20.668;2022-09-13T00:25:14;1.63;;;1.15;;
42988;SDS011;28622;43.716;20.668;2022-09-13T00:27:39;1.77;;;1.02;;
42988;SDS011;28622;43.716;20.668;2022-09-13T00:30:06;1.20;;;0.65;;
42988;SDS011;28622;43.716;20.668;2022-09-13T00:32:33;1.95;;;1.08;;
42988;SDS011;28622;43.716;20.668;2022-09-13T00:34:59;1.67;;;0.73;;
42988;SDS011;28622;43.716;20.668;2022-09-13T00:37:25;1.33;;;0.93;;
42988;SDS011;28622;43.716;20.668;2022-09-13T00:39:51;1.23;;;0.80;;
42988;SDS011;28622;43.716;20.668;2022-09-13T00:42:17;1.45;;;0.65;;
42988;SDS011;28622;43.716;20.668;2022-09-13T00:47:30;1.42;;;0.57;;
42988;SDS011;28622;43.716;20.668;2022-09-13T00:49:59;2.05;;;0.88;;
42988;SDS011;28622;43.716;20.668;2022-09-13T00:52:36;1.42;;;0.52;;
42988;SDS011;28622;43.716;20.668;2022-09-13T00:55:06;1.75;;;0.80;;
42988;SDS011;28622;43.716;20.668;2022-09-13T00:57:36;3.33;;;0.73;;
42988;SDS011;28622;43.716;20.668;2022-09-13T01:02:45;0.63;;;0.50;;
42988;SDS011;28622;43.716;20.668;2022-09-13T01:05:17;2.13;;;0.90;;
42988;SDS011;28622;43.716;20.668;2022-09-13T01:07:46;2.63;;;0.77;;
42988;SDS011;28622;43.716;20.668;2022-09-13T01:10:12;1.40;;;0.63;;
42988;SDS011;28622;43.716;20.668;2022-09-13T01:15:12;0.70;;;0.65;;
42988;SDS011;28622;43.716;20.668;2022-09-13T01:17:38;1.15;;;0.70;;
42988;SDS011;28622;43.716;20.668;2022-09-13T01:20:05;1.80;;;0.90;;
42988;SDS011;28622;43.716;20.668;2022-09-13T01:28:07;1.85;;;1.00;;
42988;SDS011;28622;43.716;20.668;2022-09-13T01:36:55;1.48;;;1.00;;
42988;SDS011;28622;43.716;20.668;2022-09-13T01:44:54;1.80;;;0.45;;
42988;SDS011;28622;43.716;20.668;2022-09-13T01:50:21;1.27;;;0.63;;
42988;SDS011;28622;43.716;20.668;2022-09-13T01:53:02;2.72;;;0.80;;
42988;SDS011;28622;43.716;20.668;2022-09-13T01:55:37;1.35;;;0.85;;
42988;SDS011;28622;43.716;20.668;2022-09-13T02:03:37;0.82;;;0.50;;
42988;SDS011;28622;43.716;20.668;2022-09-13T02:06:29;4.63;;;0.77;;
42988;SDS011;28622;43.716;20.668;2022-09-13T02:08:59;4.75;;;0.95;;
42988;SDS011;28622;43.716;20.668;2022-09-13T02:11:28;0.88;;;0.75;;
42988;SDS011;28622;43.716;20.668;2022-09-13T02:14:02;1.25;;;0.75;;
42988;SDS011;28622;43.716;20.668;2022-09-13T02:16:49;1.10;;;0.70;;
42988;SDS011;28622;43.716;20.668;2022-09-13T02:19:37;0.75;;;0.45;;
42988;SDS011;28622;43.716;20.668;2022-09-13T02:22:05;0.65;;;0.60;;
42988;SDS011;28622;43.716;20.668;2022-09-13T02:24:38;1.10;;;0.68;;
42988;SDS011;28622;43.716;20.668;2022-09-13T02:27:11;1.85;;;0.80;;
42988;SDS011;28622;43.716;20.668;2022-09-13T02:29:41;1.52;;;0.85;;
42988;SDS011;28622;43.716;20.668;2022-09-13T02:34:53;2.45;;;0.80;;
42988;SDS011;28622;43.716;20.668;2022-09-13T02:37:35;1.63;;;0.70;;
42988;SDS011;28622;43.716;20.668;2022-09-13T02:40:04;1.42;;;0.70;;
42988;SDS011;28622;43.716;20.668;2022-09-13T02:42:38;1.75;;;0.90;;
42988;SDS011;28622;43.716;20.668;2022-09-13T02:45:08;2.20;;;0.80;;
42988;SDS011;28622;43.716;20.668;2022-09-13T02:53:02;3.92;;;1.27;;
42988;SDS011;28622;43.716;20.668;2022-09-13T03:01:10;1.88;;;0.95;;
42988;SDS011;28622;43.716;20.668;2022-09-13T03:03:36;2.05;;;1.73;;
42988;SDS011;28622;43.716;20.668;2022-09-13T03:06:01;1.80;;;0.80;;
42988;SDS011;28622;43.716;20.668;2022-09-13T03:08:27;1.02;;;0.70;;
42988;SDS011;28622;43.716;20.668;2022-09-13T03:17:22;1.15;;;0.77;;
42988;SDS011;28622;43.716;20.668;2022-09-13T03:19:28;2.65;;;0.73;;
42988;SDS011;28622;43.716;20.668;2022-09-13T03:24:38;0.73;;;0.50;;
42988;SDS011;28622;43.716;20.668;2022-09-13T03:28:15;0.80;;;0.57;;
42988;SDS011;28622;43.716;20.668;2022-09-13T03:30:22;3.33;;;0.70;;
42988;SDS011;28622;43.716;20.668;2022-09-13T03:35:51;1.05;;;0.77;;
42988;SDS011;28622;43.716;20.668;2022-09-13T03:38:26;0.95;;;0.63;;
42988;SDS011;28622;43.716;20.668;2022-09-13T03:43:52;2.17;;;0.98;;
42988;SDS011;28622;43.716;20.668;2022-09-13T03:46:26;0.90;;;0.55;;
42988;SDS011;28622;43.716;20.668;2022-09-13T03:49:09;0.95;;;0.60;;
42988;SDS011;28622;43.716;20.668;2022-09-13T03:51:42;0.88;;;0.52;;
42988;SDS011;28622;43.716;20.668;2022-09-13T03:54:13;1.13;;;0.60;;
42988;SDS011;28622;43.716;20.668;2022-09-13T03:57:06;1.20;;;0.85;;
42988;SDS011;28622;43.716;20.668;2022-09-13T03:59:33;1.70;;;0.60;;
42988;SDS011;28622;43.716;20.668;2022-09-13T04:02:01;2.28;;;1.10;;
42988;SDS011;28622;43.716;20.668;2022-09-13T04:04:28;2.00;;;0.88;;
42988;SDS011;28622;43.716;20.668;2022-09-13T04:06:54;1.52;;;0.63;;
42988;SDS011;28622;43.716;20.668;2022-09-13T04:09:21;0.80;;;0.60;;
42988;SDS011;28622;43.716;20.668;2022-09-13T04:11:47;0.57;;;0.57;;
42988;SDS011;28622;43.716;20.668;2022-09-13T04:14:13;1.15;;;0.70;;
42988;SDS011;28622;43.716;20.668;2022-09-13T04:16:40;1.02;;;0.70;;
42988;SDS011;28622;43.716;20.668;2022-09-13T04:19:06;3.95;;;0.77;;
42988;SDS011;28622;43.716;20.668;2022-09-13T04:21:32;1.00;;;0.80;;
42988;SDS011;28622;43.716;20.668;2022-09-13T04:23:57;9.60;;;0.73;;
42988;SDS011;28622;43.716;20.668;2022-09-13T04:26:23;5.70;;;0.80;;
42988;SDS011;28622;43.716;20.668;2022-09-13T04:28:51;1.77;;;1.13;;
42988;SDS011;28622;43.716;20.668;2022-09-13T04:31:17;0.80;;;0.65;;
42988;SDS011;28622;43.716;20.668;2022-09-13T04:33:43;2.10;;;0.80;;
42988;SDS011;28622;43.716;20.668;2022-09-13T04:36:08;1.10;;;0.80;;
42988;SDS011;28622;43.716;20.668;2022-09-13T04:38:34;2.35;;;1.20;;
42988;SDS011;28622;43.716;20.668;2022-09-13T04:41:01;1.63;;;0.82;;
42988;SDS011;28622;43.716;20.668;2022-09-13T04:43:27;1.63;;;0.75;;
42988;SDS011;28622;43.716;20.668;2022-09-13T04:45:53;5.22;;;2.22;;
42988;SDS011;28622;43.716;20.668;2022-09-13T04:48:23;3.15;;;1.70;;
42988;SDS011;28622;43.716;20.668;2022-09-13T04:50:49;4.03;;;1.80;;
42988;SDS011;28622;43.716;20.668;2022-09-13T04:53:14;5.55;;;1.20;;
42988;SDS011;28622;43.716;20.668;2022-09-13T04:55:40;2.78;;;1.40;;
42988;SDS011;28622;43.716;20.668;2022-09-13T04:58:06;2.20;;;1.40;;
42988;SDS011;28622;43.716;20.668;2022-09-13T05:00:32;1.92;;;0.90;;
42988;SDS011;28622;43.716;20.668;2022-09-13T05:02:58;1.98;;;0.98;;
42988;SDS011;28622;43.716;20.668;2022-09-13T05:05:24;1.55;;;1.15;;
42988;SDS011;28622;43.716;20.668;2022-09-13T05:07:50;3.15;;;0.80;;
42988;SDS011;28622;43.716;20.668;2022-09-13T05:10:16;2.58;;;1.00;;
42988;SDS011;28622;43.716;20.668;2022-09-13T05:12:43;2.20;;;1.38;;
42988;SDS011;28622;43.716;20.668;2022-09-13T05:15:09;3.22;;;1.08;;
42988;SDS011;28622;43.716;20.668;2022-09-13T05:17:36;1.00;;;0.80;;
42988;SDS011;28622;43.716;20.668;2022-09-13T05:20:02;4.88;;;1.40;;
42988;SDS011;28622;43.716;20.668;2022-09-13T05:22:30;1.83;;;1.08;;
42988;SDS011;28622;43.716;20.668;2022-09-13T05:24:55;4.97;;;1.50;;
42988;SDS011;28622;43.716;20.668;2022-09-13T05:27:21;1.65;;;0.80;;
42988;SDS011;28622;43.716;20.668;2022-09-13T05:29:47;0.82;;;0.60;;
42988;SDS011;28622;43.716;20.668;2022-09-13T05:32:13;1.95;;;1.10;;
42988;SDS011;28622;43.716;20.668;2022-09-13T05:34:39;1.35;;;0.90;;
42988;SDS011;28622;43.716;20.668;2022-09-13T05:37:04;2.10;;;1.27;;
42988;SDS011;28622;43.716;20.668;2022-09-13T05:39:30;1.90;;;0.88;;
42988;SDS011;28622;43.716;20.668;2022-09-13T05:41:56;2.22;;;0.82;;
42988;SDS011;28622;43.716;20.668;2022-09-13T05:44:22;2.47;;;1.40;;
42988;SDS011;28622;43.716;20.668;2022-09-13T05:46:48;1.45;;;1.10;;
42988;SDS011;28622;43.716;20.668;2022-09-13T05:49:13;1.10;;;0.85;;
42988;SDS011;28622;43.716;20.668;2022-09-13T05:51:39;2.47;;;1.15;;
42988;SDS011;28622;43.716;20.668;2022-09-13T05:54:05;1.13;;;0.85;;
42988;SDS011;28622;43.716;20.668;2022-09-13T05:56:31;6.13;;;0.80;;
42988;SDS011;28622;43.716;20.668;2022-09-13T05:58:57;4.25;;;0.98;;
42988;SDS011;28622;43.716;20.668;2022-09-13T06:01:26;1.40;;;0.77;;
42988;SDS011;28622;43.716;20.668;2022-09-13T06:03:54;2.80;;;1.30;;
42988;SDS011;28622;43.716;20.668;2022-09-13T06:06:21;2.03;;;0.98;;
42988;SDS011;28622;43.716;20.668;2022-09-13T06:08:50;1.80;;;0.95;;
42988;SDS011;28622;43.716;20.668;2022-09-13T06:11:17;2.25;;;1.00;;
42988;SDS011;28622;43.716;20.668;2022-09-13T06:13:44;1.85;;;0.98;;
42988;SDS011;28622;43.716;20.668;2022-09-13T06:16:11;1.88;;;0.88;;
42988;SDS011;28622;43.716;20.668;2022-09-13T06:18:38;1.23;;;0.75;;
42988;SDS011;28622;43.716;20.668;2022-09-13T06:21:08;1.90;;;0.85;;
42988;SDS011;28622;43.716;20.668;2022-09-13T06:23:36;1.45;;;0.80;;
42988;SDS011;28622;43.716;20.668;2022-09-13T06:26:04;1.70;;;0.77;;
42988;SDS011;28622;43.716;20.668;2022-09-13T06:28:35;1.80;;;1.10;;
42988;SDS011;28622;43.716;20.668;2022-09-13T06:31:02;1.20;;;0.80;;
42988;SDS011;28622;43.716;20.668;2022-09-13T06:33:30;8.55;;;3.65;;
42988;SDS011;28622;43.716;20.668;2022-09-13T06:36:01;7.80;;;4.22;;
42988;SDS011;28622;43.716;20.668;2022-09-13T06:38:28;4.07;;;1.52;;
42988;SDS011;28622;43.716;20.668;2022-09-13T06:41:01;2.13;;;1.25;;
42988;SDS011;28622;43.716;20.668;2022-09-13T06:43:28;1.63;;;1.00;;
42988;SDS011;28622;43.716;20.668;2022-09-13T06:45:58;1.30;;;0.85;;
42988;SDS011;28622;43.716;20.668;2022-09-13T06:48:32;4.40;;;2.03;;
42988;SDS011;28622;43.716;20.668;2022-09-13T06:50:59;1.33;;;0.73;;
42988;SDS011;28622;43.716;20.668;2022-09-13T06:53:26;0.80;;;0.50;;
42988;SDS011;28622;43.716;20.668;2022-09-13T06:56:02;1.42;;;0.90;;
42988;SDS011;28622;43.716;20.668;2022-09-13T06:58:31;2.10;;;0.85;;
42988;SDS011;28622;43.716;20.668;2022-09-13T07:01:04;1.98;;;1.00;;
42988;SDS011;28622;43.716;20.668;2022-09-13T07:03:36;2.78;;;1.00;;
42988;SDS011;28622;43.716;20.668;2022-09-13T07:06:07;6.55;;;1.73;;
42988;SDS011;28622;43.716;20.668;2022-09-13T07:08:37;2.30;;;1.00;;
42988;SDS011;28622;43.716;20.668;2022-09-13T07:11:03;1.10;;;0.70;;
42988;SDS011;28622;43.716;20.668;2022-09-13T07:13:29;2.83;;;1.30;;
42988;SDS011;28622;43.716;20.668;2022-09-13T07:15:55;1.27;;;0.75;;
42988;SDS011;28622;43.716;20.668;2022-09-13T07:18:21;1.23;;;0.80;;
42988;SDS011;28622;43.716;20.668;2022-09-13T07:20:47;1.77;;;1.02;;
42988;SDS011;28622;43.716;20.668;2022-09-13T07:23:13;1.80;;;0.70;;
42988;SDS011;28622;43.716;20.668;2022-09-13T07:25:38;8.57;;;1.13;;
42988;SDS011;28622;43.716;20.668;2022-09-13T07:28:04;1.55;;;0.65;;
42988;SDS011;28622;43.716;20.668;2022-09-13T07:30:30;3.25;;;1.85;;
42988;SDS011;28622;43.716;20.668;2022-09-13T07:32:56;0.95;;;0.63;;
42988;SDS011;28622;43.716;20.668;2022-09-13T07:35:21;1.95;;;1.50;;
42988;SDS011;28622;43.716;20.668;2022-09-13T07:37:47;1.15;;;0.82;;
42988;SDS011;28622;43.716;20.668;2022-09-13T07:40:13;1.80;;;1.02;;
42988;SDS011;28622;43.716;20.668;2022-09-13T07:42:39;1.58;;;1.00;;
42988;SDS011;28622;43.716;20.668;2022-09-13T07:45:05;1.38;;;0.80;;
42988;SDS011;28622;43.716;20.668;2022-09-13T07:47:31;2.17;;;0.90;;
42988;SDS011;28622;43.716;20.668;2022-09-13T07:49:57;3.95;;;1.02;;
42988;SDS011;28622;43.716;20.668;2022-09-13T07:52:23;2.63;;;1.27;;
42988;SDS011;28622;43.716;20.668;2022-09-13T07:54:53;1.83;;;0.85;;
42988;SDS011;28622;43.716;20.668;2022-09-13T07:57:18;1.00;;;0.63;;
42988;SDS011;28622;43.716;20.668;2022-09-13T07:59:44;0.82;;;0.60;;
42988;SDS011;28622;43.716;20.668;2022-09-13T08:02:10;2.95;;;1.00;;
42988;SDS011;28622;43.716;20.668;2022-09-13T08:04:36;1.45;;;0.73;;
42988;SDS011;28622;43.716;20.668;2022-09-13T08:07:02;1.40;;;0.65;;
42988;SDS011;28622;43.716;20.668;2022-09-13T08:09:28;1.27;;;0.80;;
42988;SDS011;28622;43.716;20.668;2022-09-13T08:11:53;1.02;;;0.57;;
42988;SDS011;28622;43.716;20.668;2022-09-13T08:14:20;2.28;;;1.08;;
42988;SDS011;28622;43.716;20.668;2022-09-13T08:16:46;3.85;;;0.60;;
42988;SDS011;28622;43.716;20.668;2022-09-13T08:19:13;1.90;;;1.10;;
42988;SDS011;28622;43.716;20.668;2022-09-13T08:21:41;0.98;;;0.60;;
42988;SDS011;28622;43.716;20.668;2022-09-13T08:24:11;1.98;;;1.10;;
42988;SDS011;28622;43.716;20.668;2022-09-13T08:26:41;0.65;;;0.60;;
42988;SDS011;28622;43.716;20.668;2022-09-13T08:29:07;1.40;;;0.70;;
42988;SDS011;28622;43.716;20.668;2022-09-13T08:31:35;1.60;;;0.85;;
42988;SDS011;28622;43.716;20.668;2022-09-13T08:34:01;1.75;;;0.82;;
42988;SDS011;28622;43.716;20.668;2022-09-13T08:36:28;1.52;;;0.90;;
42988;SDS011;28622;43.716;20.668;2022-09-13T08:38:57;2.83;;;0.90;;
42988;SDS011;28622;43.716;20.668;2022-09-13T08:44:26;2.03;;;0.88;;
42988;SDS011;28622;43.716;20.668;2022-09-13T08:49:42;1.95;;;0.80;;
42988;SDS011;28622;43.716;20.668;2022-09-13T08:54:46;1.73;;;0.80;;
42988;SDS011;28622;43.716;20.668;2022-09-13T09:05:21;2.03;;;0.90;;
42988;SDS011;28622;43.716;20.668;2022-09-13T09:12:56;1.05;;;0.68;;
42988;SDS011;28622;43.716;20.668;2022-09-13T09:16:10;1.42;;;0.80;;
42988;SDS011;28622;43.716;20.668;2022-09-13T09:18:24;3.50;;;0.83;;
42988;SDS011;28622;43.716;20.668;2022-09-13T09:20:55;1.85;;;0.95;;
42988;SDS011;28622;43.716;20.668;2022-09-13T09:23:33;1.33;;;0.90;;
42988;SDS011;28622;43.716;20.668;2022-09-13T09:26:12;2.90;;;1.25;;
42988;SDS011;28622;43.716;20.668;2022-09-13T09:37:27;1.00;;;0.50;;
42988;SDS011;28622;43.716;20.668;2022-09-13T09:39:59;1.73;;;0.55;;
42988;SDS011;28622;43.716;20.668;2022-09-13T09:42:33;3.20;;;0.73;;
42988;SDS011;28622;43.716;20.668;2022-09-13T09:45:17;1.98;;;1.10;;
42988;SDS011;28622;43.716;20.668;2022-09-13T09:47:52;2.83;;;1.42;;
42988;SDS011;28622;43.716;20.668;2022-09-13T09:50:21;1.70;;;0.80;;
42988;SDS011;28622;43.716;20.668;2022-09-13T09:52:51;2.33;;;0.90;;
42988;SDS011;28622;43.716;20.668;2022-09-13T09:57:50;1.27;;;0.90;;
42988;SDS011;28622;43.716;20.668;2022-09-13T10:00:33;1.90;;;0.80;;
42988;SDS011;28622;43.716;20.668;2022-09-13T10:03:16;0.52;;;0.40;;
42988;SDS011;28622;43.716;20.668;2022-09-13T10:08:25;1.00;;;0.52;;
42988;SDS011;28622;43.716;20.668;2022-09-13T10:10:57;0.40;;;0.40;;
42988;SDS011;28622;43.716;20.668;2022-09-13T10:13:25;1.65;;;0.88;;
42988;SDS011;28622;43.716;20.668;2022-09-13T10:15:55;0.98;;;0.52;;
42988;SDS011;28622;43.716;20.668;2022-09-13T10:18:22;0.60;;;0.60;;
42988;SDS011;28622;43.716;20.668;2022-09-13T10:23:46;1.13;;;0.60;;
42988;SDS011;28622;43.716;20.668;2022-09-13T10:26:18;1.13;;;0.60;;
42988;SDS011;28622;43.716;20.668;2022-09-13T10:28:58;2.50;;;1.27;;
42988;SDS011;28622;43.716;20.668;2022-09-13T10:31:30;2.58;;;0.82;;
42988;SDS011;28622;43.716;20.668;2022-09-13T10:36:29;1.25;;;0.77;;
42988;SDS011;28622;43.716;20.668;2022-09-13T10:39:06;0.77;;;0.52;;
42988;SDS011;28622;43.716;20.668;2022-09-13T10:41:38;1.27;;;0.60;;
42988;SDS011;28622;43.716;20.668;2022-09-13T10:44:21;1.08;;;0.50;;
42988;SDS011;28622;43.716;20.668;2022-09-13T10:46:58;0.55;;;0.40;;
42988;SDS011;28622;43.716;20.668;2022-09-13T10:49:35;0.60;;;0.43;;
42988;SDS011;28622;43.716;20.668;2022-09-13T10:52:34;1.20;;;0.65;;
42988;SDS011;28622;43.716;20.668;2022-09-13T11:00:15;0.82;;;0.70;;
42988;SDS011;28622;43.716;20.668;2022-09-13T11:05:31;0.50;;;0.40;;
42988;SDS011;28622;43.716;20.668;2022-09-13T11:21:54;0.80;;;0.30;;
42988;SDS011;28622;43.716;20.668;2022-09-13T11:27:22;0.93;;;0.60;;
42988;SDS011;28622;43.716;20.668;2022-09-13T11:30:20;0.30;;;0.30;;
42988;SDS011;28622;43.716;20.668;2022-09-13T11:32:51;1.13;;;0.45;;
42988;SDS011;28622;43.716;20.668;2022-09-13T11:55:29;0.95;;;0.60;;
42988;SDS011;28622;43.716;20.668;2022-09-13T11:58:09;0.80;;;0.57;;
42988;SDS011;28622;43.716;20.668;2022-09-13T12:00:43;0.57;;;0.43;;
42988;SDS011;28622;43.716;20.668;2022-09-13T12:05:41;1.40;;;0.40;;
42988;SDS011;28622;43.716;20.668;2022-09-13T12:13:18;1.35;;;0.93;;
42988;SDS011;28622;43.716;20.668;2022-09-13T12:15:51;0.98;;;0.60;;
42988;SDS011;28622;43.716;20.668;2022-09-13T12:18:23;0.63;;;0.32;;
42988;SDS011;28622;43.716;20.668;2022-09-13T12:21:05;1.25;;;0.60;;
42988;SDS011;28622;43.716;20.668;2022-09-13T12:26:22;3.45;;;1.55;;
42988;SDS011;28622;43.716;20.668;2022-09-13T12:29:02;1.73;;;1.10;;
42988;SDS011;28622;43.716;20.668;2022-09-13T12:31:48;1.70;;;0.80;;
42988;SDS011;28622;43.716;20.668;2022-09-13T12:34:19;2.17;;;0.75;;
42988;SDS011;28622;43.716;20.668;2022-09-13T12:37:03;1.10;;;0.65;;
42988;SDS011;28622;43.716;20.668;2022-09-13T12:45:34;2.05;;;0.80;;
42988;SDS011;28622;43.716;20.668;2022-09-13T13:03:54;1.17;;;0.70;;
42988;SDS011;28622;43.716;20.668;2022-09-13T13:09:38;1.75;;;0.73;;
42988;SDS011;28622;43.716;20.668;2022-09-13T13:12:30;1.42;;;0.40;;
42988;SDS011;28622;43.716;20.668;2022-09-13T13:15:05;1.17;;;0.50;;
42988;SDS011;28622;43.716;20.668;2022-09-13T13:17:54;0.90;;;0.63;;
42988;SDS011;28622;43.716;20.668;2022-09-13T13:23:16;1.90;;;0.57;;
42988;SDS011;28622;43.716;20.668;2022-09-13T13:36:30;2.00;;;0.80;;
42988;SDS011;28622;43.716;20.668;2022-09-13T13:39:11;0.40;;;0.38;;
42988;SDS011;28622;43.716;20.668;2022-09-13T14:15:54;1.58;;;0.40;;
42988;SDS011;28622;43.716;20.668;2022-09-13T14:21:23;0.70;;;0.40;;
42988;SDS011;28622;43.716;20.668;2022-09-13T14:24:06;0.50;;;0.38;;
42988;SDS011;28622;43.716;20.668;2022-09-13T14:26:53;0.68;;;0.32;;
42988;SDS011;28622;43.716;20.668;2022-09-13T14:29:23;0.52;;;0.40;;
42988;SDS011;28622;43.716;20.668;2022-09-13T14:31:53;0.30;;;0.30;;
42988;SDS011;28622;43.716;20.668;2022-09-13T14:34:30;1.13;;;0.60;;
42988;SDS011;28622;43.716;20.668;2022-09-13T14:37:02;0.65;;;0.50;;
42988;SDS011;28622;43.716;20.668;2022-09-13T14:39:30;0.40;;;0.40;;
42988;SDS011;28622;43.716;20.668;2022-09-13T14:42:10;0.52;;;0.45;;
42988;SDS011;28622;43.716;20.668;2022-09-13T14:44:42;0.98;;;0.50;;
42988;SDS011;28622;43.716;20.668;2022-09-13T14:49:43;0.45;;;0.38;;
42988;SDS011;28622;43.716;20.668;2022-09-13T14:52:34;1.75;;;0.95;;
42988;SDS011;28622;43.716;20.668;2022-09-13T14:55:07;7.75;;;4.25;;
42988;SDS011;28622;43.716;20.668;2022-09-13T14:57:40;1.60;;;1.08;;
42988;SDS011;28622;43.716;20.668;2022-09-13T15:02:51;1.05;;;0.52;;
42988;SDS011;28622;43.716;20.668;2022-09-13T15:05:23;1.00;;;0.50;;
42988;SDS011;28622;43.716;20.668;2022-09-13T15:07:53;0.70;;;0.45;;
42988;SDS011;28622;43.716;20.668;2022-09-13T15:20:54;1.17;;;0.70;;
42988;SDS011;28622;43.716;20.668;2022-09-13T15:23:35;2.70;;;0.45;;
42988;SDS011;28622;43.716;20.668;2022-09-13T15:26:11;1.70;;;0.73;;
42988;SDS011;28622;43.716;20.668;2022-09-13T15:31:09;1.10;;;0.95;;
42988;SDS011;28622;43.716;20.668;2022-09-13T15:33:43;1.08;;;0.60;;
42988;SDS011;28622;43.716;20.668;2022-09-13T15:41:37;0.50;;;0.50;;
42988;SDS011;28622;43.716;20.668;2022-09-13T15:44:06;2.80;;;0.90;;
42988;SDS011;28622;43.716;20.668;2022-09-13T15:46:45;0.57;;;0.52;;
42988;SDS011;28622;43.716;20.668;2022-09-13T15:49:14;0.95;;;0.77;;
42988;SDS011;28622;43.716;20.668;2022-09-13T15:51:43;0.77;;;0.70;;
42988;SDS011;28622;43.716;20.668;2022-09-13T15:54:09;0.68;;;0.50;;
42988;SDS011;28622;43.716;20.668;2022-09-13T15:56:37;1.80;;;1.10;;
42988;SDS011;28622;43.716;20.668;2022-09-13T15:59:08;4.07;;;1.67;;
42988;SDS011;28622;43.716;20.668;2022-09-13T16:01:40;2.05;;;1.25;;
42988;SDS011;28622;43.716;20.668;2022-09-13T16:04:07;3.72;;;1.17;;
42988;SDS011;28622;43.716;20.668;2022-09-13T16:06:33;1.27;;;0.80;;
42988;SDS011;28622;43.716;20.668;2022-09-13T16:08:59;2.13;;;1.20;;
42988;SDS011;28622;43.716;20.668;2022-09-13T16:11:26;11.18;;;3.08;;
42988;SDS011;28622;43.716;20.668;2022-09-13T16:13:52;16.80;;;4.20;;
42988;SDS011;28622;43.716;20.668;2022-09-13T16:16:18;9.48;;;3.83;;
42988;SDS011;28622;43.716;20.668;2022-09-13T16:18:44;6.80;;;3.05;;
42988;SDS011;28622;43.716;20.668;2022-09-13T16:21:10;8.98;;;4.03;;
42988;SDS011;28622;43.716;20.668;2022-09-13T16:23:35;10.90;;;5.40;;
42988;SDS011;28622;43.716;20.668;2022-09-13T16:26:01;8.50;;;3.75;;
42988;SDS011;28622;43.716;20.668;2022-09-13T16:28:29;15.52;;;3.92;;
42988;SDS011;28622;43.716;20.668;2022-09-13T16:30:55;10.50;;;4.25;;
42988;SDS011;28622;43.716;20.668;2022-09-13T16:33:21;6.93;;;2.35;;
42988;SDS011;28622;43.716;20.668;2022-09-13T16:35:47;4.32;;;1.67;;
42988;SDS011;28622;43.716;20.668;2022-09-13T16:38:13;6.07;;;1.35;;
42988;SDS011;28622;43.716;20.668;2022-09-13T16:40:39;2.08;;;0.93;;
42988;SDS011;28622;43.716;20.668;2022-09-13T16:43:09;2.28;;;1.45;;
42988;SDS011;28622;43.716;20.668;2022-09-13T16:45:38;2.50;;;1.30;;
42988;SDS011;28622;43.716;20.668;2022-09-13T16:48:05;5.40;;;2.80;;
42988;SDS011;28622;43.716;20.668;2022-09-13T16:50:32;10.70;;;4.55;;
42988;SDS011;28622;43.716;20.668;2022-09-13T16:52:58;10.02;;;5.45;;
42988;SDS011;28622;43.716;20.668;2022-09-13T16:55:24;9.93;;;4.05;;
42988;SDS011;28622;43.716;20.668;2022-09-13T16:57:51;8.30;;;3.13;;
42988;SDS011;28622;43.716;20.668;2022-09-13T17:00:17;6.70;;;3.42;;
42988;SDS011;28622;43.716;20.668;2022-09-13T17:02:44;4.80;;;2.33;;
42988;SDS011;28622;43.716;20.668;2022-09-13T17:05:11;5.85;;;1.95;;
42988;SDS011;28622;43.716;20.668;2022-09-13T17:07:37;7.97;;;3.35;;
42988;SDS011;28622;43.716;20.668;2022-09-13T17:10:05;5.28;;;2.25;;
42988;SDS011;28622;43.716;20.668;2022-09-13T17:12:32;6.07;;;2.10;;
42988;SDS011;28622;43.716;20.668;2022-09-13T17:14:58;3.38;;;1.50;;
42988;SDS011;28622;43.716;20.668;2022-09-13T17:17:25;5.55;;;1.70;;
42988;SDS011;28622;43.716;20.668;2022-09-13T17:19:51;4.20;;;1.48;;
42988;SDS011;28622;43.716;20.668;2022-09-13T17:22:16;4.28;;;1.52;;
42988;SDS011;28622;43.716;20.668;2022-09-13T17:24:42;4.65;;;2.28;;
42988;SDS011;28622;43.716;20.668;2022-09-13T17:27:08;4.57;;;1.95;;
42988;SDS011;28622;43.716;20.668;2022-09-13T17:29:35;2.55;;;1.40;;
42988;SDS011;28622;43.716;20.668;2022-09-13T17:32:01;2.00;;;1.20;;
42988;SDS011;28622;43.716;20.668;2022-09-13T17:34:29;2.88;;;1.25;;
42988;SDS011;28622;43.716;20.668;2022-09-13T17:36:57;2.05;;;1.00;;
42988;SDS011;28622;43.716;20.668;2022-09-13T17:39:23;1.63;;;1.00;;
42988;SDS011;28622;43.716;20.668;2022-09-13T17:41:49;1.40;;;1.08;;
42988;SDS011;28622;43.716;20.668;2022-09-13T17:44:15;1.63;;;0.98;;
42988;SDS011;28622;43.716;20.668;2022-09-13T17:46:42;1.17;;;0.85;;
42988;SDS011;28622;43.716;20.668;2022-09-13T17:49:08;1.67;;;0.90;;
42988;SDS011;28622;43.716;20.668;2022-09-13T17:51:34;2.05;;;1.40;;
42988;SDS011;28622;43.716;20.668;2022-09-13T17:54:01;2.70;;;1.15;;
42988;SDS011;28622;43.716;20.668;2022-09-13T17:56:33;2.60;;;1.35;;
42988;SDS011;28622;43.716;20.668;2022-09-13T17:59:03;3.13;;;1.52;;
42988;SDS011;28622;43.716;20.668;2022-09-13T18:01:35;1.20;;;0.90;;
42988;SDS011;28622;43.716;20.668;2022-09-13T18:04:02;1.63;;;0.98;;
42988;SDS011;28622;43.716;20.668;2022-09-13T18:06:29;0.68;;;0.60;;
42988;SDS011;28622;43.716;20.668;2022-09-13T18:08:54;3.30;;;1.30;;
42988;SDS011;28622;43.716;20.668;2022-09-13T18:11:21;2.45;;;1.38;;
42988;SDS011;28622;43.716;20.668;2022-09-13T18:13:47;2.00;;;1.13;;
42988;SDS011;28622;43.716;20.668;2022-09-13T18:16:18;5.75;;;1.52;;
42988;SDS011;28622;43.716;20.668;2022-09-13T18:18:45;1.48;;;1.05;;
42988;SDS011;28622;43.716;20.668;2022-09-13T18:21:12;3.10;;;1.00;;
42988;SDS011;28622;43.716;20.668;2022-09-13T18:23:45;2.03;;;0.88;;
42988;SDS011;28622;43.716;20.668;2022-09-13T18:26:16;2.28;;;1.05;;
42988;SDS011;28622;43.716;20.668;2022-09-13T18:28:44;5.28;;;1.40;;
42988;SDS011;28622;43.716;20.668;2022-09-13T18:31:14;4.32;;;1.23;;
42988;SDS011;28622;43.716;20.668;2022-09-13T18:33:41;2.35;;;1.38;;
42988;SDS011;28622;43.716;20.668;2022-09-13T18:36:08;2.90;;;1.60;;
42988;SDS011;28622;43.716;20.668;2022-09-13T18:38:40;3.35;;;1.60;;
42988;SDS011;28622;43.716;20.668;2022-09-13T18:41:12;3.90;;;1.48;;
42988;SDS011;28622;43.716;20.668;2022-09-13T18:43:43;4.47;;;1.50;;
42988;SDS011;28622;43.716;20.668;2022-09-13T18:46:11;2.40;;;1.20;;
42988;SDS011;28622;43.716;20.668;2022-09-13T18:48:39;3.35;;;1.67;;
42988;SDS011;28622;43.716;20.668;2022-09-13T18:51:07;4.80;;;1.30;;
42988;SDS011;28622;43.716;20.668;2022-09-13T18:53:34;1.95;;;1.10;;
42988;SDS011;28622;43.716;20.668;2022-09-13T18:56:03;1.77;;;1.27;;
42988;SDS011;28622;43.716;20.668;2022-09-13T18:58:31;1.95;;;1.67;;
42988;SDS011;28622;43.716;20.668;2022-09-13T19:01:09;14.27;;;2.70;;
42988;SDS011;28622;43.716;20.668;2022-09-13T19:03:51;3.53;;;1.50;;
42988;SDS011;28622;43.716;20.668;2022-09-13T19:06:34;7.13;;;2.00;;